sensor_id;sensor_type;location;lat;lon;timestamp;pressure;altitude;pressure_sealevel;temperature;humidity
38253;BME280;24785;52.372;20.672;2022-11-20T00:07:05;100597.00;;;-4.29;93.77
38253;BME280;24785;52.372;20.672;2022-11-20T00:17:05;100589.75;;;-4.50;94.10
38253;BME280;24785;52.372;20.672;2022-11-20T00:27:07;100587.06;;;-4.64;94.43
38253;BME280;24785;52.372;20.672;2022-11-20T00:37:08;100586.34;;;-4.50;95.22
38253;BME280;24785;52.372;20.672;2022-11-20T00:47:09;100584.72;;;-4.28;95.54
38253;BME280;24785;52.372;20.672;2022-11-20T00:57:09;100571.22;;;-4.09;93.37
38253;BME280;24785;52.372;20.672;2022-11-20T01:07:10;100568.19;;;-3.98;93.98
38253;BME280;24785;52.372;20.672;2022-11-20T01:17:11;100567.94;;;-3.88;93.92
38253;BME280;24785;52.372;20.672;2022-11-20T01:27:12;100569.84;;;-3.82;94.21
38253;BME280;24785;52.372;20.672;2022-11-20T01:37:13;100550.94;;;-3.69;94.59
38253;BME280;24785;52.372;20.672;2022-11-20T01:47:19;100560.00;;;-3.57;93.42
38253;BME280;24785;52.372;20.672;2022-11-20T01:57:22;100551.31;;;-3.58;94.00
38253;BME280;24785;52.372;20.672;2022-11-20T02:07:26;100544.38;;;-3.51;95.49
38253;BME280;24785;52.372;20.672;2022-11-20T02:17:27;100544.28;;;-3.42;93.06
38253;BME280;24785;52.372;20.672;2022-11-20T02:27:28;100535.06;;;-3.38;94.01
38253;BME280;24785;52.372;20.672;2022-11-20T02:37:32;100534.88;;;-3.37;93.89
38253;BME280;24785;52.372;20.672;2022-11-20T02:47:35;100534.19;;;-3.31;93.12
38253;BME280;24785;52.372;20.672;2022-11-20T02:57:36;100545.13;;;-3.27;93.11
38253;BME280;24785;52.372;20.672;2022-11-20T03:07:37;100539.97;;;-3.21;92.28
38253;BME280;24785;52.372;20.672;2022-11-20T03:17:38;100520.00;;;-3.22;91.10
38253;BME280;24785;52.372;20.672;2022-11-20T03:27:39;100518.19;;;-3.21;92.25
38253;BME280;24785;52.372;20.672;2022-11-20T03:37:40;100512.16;;;-3.22;90.76
38253;BME280;24785;52.372;20.672;2022-11-20T03:47:41;100514.13;;;-3.24;91.28
38253;BME280;24785;52.372;20.672;2022-11-20T03:57:42;100529.09;;;-3.32;91.64
38253;BME280;24785;52.372;20.672;2022-11-20T04:07:43;100532.97;;;-3.58;92.17
38253;BME280;24785;52.372;20.672;2022-11-20T04:17:44;100531.72;;;-3.99;92.12
38253;BME280;24785;52.372;20.672;2022-11-20T04:27:45;100540.94;;;-4.34;94.03
38253;BME280;24785;52.372;20.672;2022-11-20T04:37:46;100534.97;;;-4.43;95.85
38253;BME280;24785;52.372;20.672;2022-11-20T04:47:47;100521.00;;;-4.35;96.89
38253;BME280;24785;52.372;20.672;2022-11-20T04:57:50;100517.63;;;-4.44;97.69
38253;BME280;24785;52.372;20.672;2022-11-20T05:07:51;100514.31;;;-4.61;97.62
38253;BME280;24785;52.372;20.672;2022-11-20T05:17:52;100498.44;;;-4.90;98.30
38253;BME280;24785;52.372;20.672;2022-11-20T05:27:53;100498.41;;;-5.13;100.00
38253;BME280;24785;52.372;20.672;2022-11-20T05:37:54;100508.22;;;-5.15;100.00
38253;BME280;24785;52.372;20.672;2022-11-20T05:47:59;100489.78;;;-4.91;100.00
38253;BME280;24785;52.372;20.672;2022-11-20T05:58:00;100480.56;;;-4.79;100.00
38253;BME280;24785;52.372;20.672;2022-11-20T06:08:02;100475.91;;;-4.60;100.00
38253;BME280;24785;52.372;20.672;2022-11-20T06:18:03;100485.59;;;-4.46;100.00
38253;BME280;24785;52.372;20.672;2022-11-20T06:28:04;100493.78;;;-4.26;100.00
38253;BME280;24785;52.372;20.672;2022-11-20T06:38:04;100483.50;;;-4.05;100.00
38253;BME280;24785;52.372;20.672;2022-11-20T06:48:05;100477.09;;;-4.02;100.00
38253;BME280;24785;52.372;20.672;2022-11-20T06:58:06;100479.63;;;-4.09;100.00
38253;BME280;24785;52.372;20.672;2022-11-20T07:08:07;100480.94;;;-4.13;100.00
38253;BME280;24785;52.372;20.672;2022-11-20T07:18:09;100475.16;;;-4.23;100.00
38253;BME280;24785;52.372;20.672;2022-11-20T07:28:10;100476.81;;;-4.07;100.00
38253;BME280;24785;52.372;20.672;2022-11-20T07:38:11;100457.13;;;-3.66;99.65
38253;BME280;24785;52.372;20.672;2022-11-20T07:48:12;100450.78;;;-3.57;97.20
38253;BME280;24785;52.372;20.672;2022-11-20T07:58:13;100445.47;;;-3.49;94.70
38253;BME280;24785;52.372;20.672;2022-11-20T08:08:14;100454.13;;;-3.33;94.60
38253;BME280;24785;52.372;20.672;2022-11-20T08:18:15;100439.72;;;-3.08;93.11
38253;BME280;24785;52.372;20.672;2022-11-20T08:28:18;100428.63;;;-2.89;91.82
38253;BME280;24785;52.372;20.672;2022-11-20T08:38:19;100409.25;;;-2.73;91.10
38253;BME280;24785;52.372;20.672;2022-11-20T08:48:20;100416.66;;;-2.55;90.63
38253;BME280;24785;52.372;20.672;2022-11-20T08:58:21;100404.75;;;-2.58;88.85
38253;BME280;24785;52.372;20.672;2022-11-20T09:08:22;100411.94;;;-2.17;89.28
38253;BME280;24785;52.372;20.672;2022-11-20T09:18:23;100409.22;;;-2.02;88.29
38253;BME280;24785;52.372;20.672;2022-11-20T09:28:24;100381.31;;;-2.10;87.73
38253;BME280;24785;52.372;20.672;2022-11-20T09:38:26;100371.69;;;-1.96;87.51
38253;BME280;24785;52.372;20.672;2022-11-20T09:48:36;100370.84;;;-1.69;85.29
38253;BME280;24785;52.372;20.672;2022-11-20T09:58:49;100370.41;;;-1.79;84.39
38253;BME280;24785;52.372;20.672;2022-11-20T10:09:04;100376.03;;;-1.82;85.18
38253;BME280;24785;52.372;20.672;2022-11-20T10:29:37;100362.59;;;-1.59;86.08
38253;BME280;24785;52.372;20.672;2022-11-20T10:50:10;100353.69;;;-0.97;84.22
38253;BME280;24785;52.372;20.672;2022-11-20T11:00:12;100331.66;;;-0.50;82.64
38253;BME280;24785;52.372;20.672;2022-11-20T11:10:19;100332.25;;;-0.21;79.75
38253;BME280;24785;52.372;20.672;2022-11-20T11:20:24;100318.31;;;-0.28;79.95
38253;BME280;24785;52.372;20.672;2022-11-20T11:30:27;100312.03;;;-0.27;79.70
38253;BME280;24785;52.372;20.672;2022-11-20T11:40:31;100305.72;;;-0.20;79.32
38253;BME280;24785;52.372;20.672;2022-11-20T11:50:33;100296.59;;;-0.17;78.87
38253;BME280;24785;52.372;20.672;2022-11-20T12:00:35;100288.31;;;-0.21;78.98
38253;BME280;24785;52.372;20.672;2022-11-20T12:10:45;100278.66;;;0.18;79.11
38253;BME280;24785;52.372;20.672;2022-11-20T12:52:35;100236.22;;;0.32;78.19
38253;BME280;24785;52.372;20.672;2022-11-20T13:23:26;100207.16;;;0.46;77.88
38253;BME280;24785;52.372;20.672;2022-11-20T13:33:31;100202.38;;;0.29;78.24
38253;BME280;24785;52.372;20.672;2022-11-20T13:43:37;100176.72;;;0.18;79.84
38253;BME280;24785;52.372;20.672;2022-11-20T14:03:51;100178.09;;;-0.17;80.02
38253;BME280;24785;52.372;20.672;2022-11-20T14:14:01;100170.47;;;-0.32;80.52
38253;BME280;24785;52.372;20.672;2022-11-20T14:24:10;100166.88;;;-0.57;81.62
38253;BME280;24785;52.372;20.672;2022-11-20T14:34:19;100175.81;;;-0.72;83.05
38253;BME280;24785;52.372;20.672;2022-11-20T14:44:27;100169.16;;;-0.74;82.83
38253;BME280;24785;52.372;20.672;2022-11-20T14:54:28;100151.16;;;-0.97;84.21
38253;BME280;24785;52.372;20.672;2022-11-20T15:04:31;100152.59;;;-1.14;86.62
38253;BME280;24785;52.372;20.672;2022-11-20T15:14:32;100162.53;;;-1.30;88.82
38253;BME280;24785;52.372;20.672;2022-11-20T15:24:33;100154.00;;;-1.45;89.75
38253;BME280;24785;52.372;20.672;2022-11-20T15:34:34;100151.16;;;-1.70;89.59
38253;BME280;24785;52.372;20.672;2022-11-20T15:44:35;100157.56;;;-1.99;91.33
38253;BME280;24785;52.372;20.672;2022-11-20T15:54:36;100133.44;;;-2.29;94.18
38253;BME280;24785;52.372;20.672;2022-11-20T16:04:38;100122.41;;;-2.04;96.38
38253;BME280;24785;52.372;20.672;2022-11-20T16:14:39;100123.88;;;-1.82;96.78
38253;BME280;24785;52.372;20.672;2022-11-20T16:24:58;100126.50;;;-1.69;97.29
38253;BME280;24785;52.372;20.672;2022-11-20T16:34:59;100114.38;;;-1.70;98.61
38253;BME280;24785;52.372;20.672;2022-11-20T16:45:00;100123.78;;;-2.22;100.00
38253;BME280;24785;52.372;20.672;2022-11-20T16:55:01;100131.28;;;-2.60;100.00
38253;BME280;24785;52.372;20.672;2022-11-20T17:05:03;100145.44;;;-2.89;100.00
38253;BME280;24785;52.372;20.672;2022-11-20T17:15:05;100138.78;;;-2.91;100.00
38253;BME280;24785;52.372;20.672;2022-11-20T17:25:06;100120.84;;;-2.88;100.00
38253;BME280;24785;52.372;20.672;2022-11-20T17:35:07;100102.28;;;-2.86;100.00
38253;BME280;24785;52.372;20.672;2022-11-20T17:45:08;100095.00;;;-2.91;100.00
38253;BME280;24785;52.372;20.672;2022-11-20T17:55:09;100088.69;;;-3.03;100.00
38253;BME280;24785;52.372;20.672;2022-11-20T18:05:10;100083.13;;;-3.28;100.00
38253;BME280;24785;52.372;20.672;2022-11-20T18:15:11;100085.00;;;-3.43;100.00
38253;BME280;24785;52.372;20.672;2022-11-20T18:25:13;100076.34;;;-3.71;100.00
38253;BME280;24785;52.372;20.672;2022-11-20T18:35:14;100069.41;;;-3.79;100.00
38253;BME280;24785;52.372;20.672;2022-11-20T18:45:16;100052.00;;;-3.87;100.00
38253;BME280;24785;52.372;20.672;2022-11-20T18:55:17;100036.00;;;-3.98;100.00
38253;BME280;24785;52.372;20.672;2022-11-20T19:05:18;100032.78;;;-4.00;100.00
38253;BME280;24785;52.372;20.672;2022-11-20T19:15:18;100025.94;;;-4.23;100.00
38253;BME280;24785;52.372;20.672;2022-11-20T19:25:19;100013.47;;;-4.42;100.00
38253;BME280;24785;52.372;20.672;2022-11-20T19:35:21;100003.38;;;-4.45;100.00
38253;BME280;24785;52.372;20.672;2022-11-20T19:45:22;100003.88;;;-4.56;100.00
38253;BME280;24785;52.372;20.672;2022-11-20T19:55:23;100001.19;;;-4.63;100.00
38253;BME280;24785;52.372;20.672;2022-11-20T20:05:24;100001.81;;;-4.61;100.00
38253;BME280;24785;52.372;20.672;2022-11-20T20:15:25;99998.50;;;-4.69;100.00
38253;BME280;24785;52.372;20.672;2022-11-20T20:25:26;100009.91;;;-4.92;100.00
38253;BME280;24785;52.372;20.672;2022-11-20T20:35:27;100001.19;;;-5.14;100.00
38253;BME280;24785;52.372;20.672;2022-11-20T20:45:28;99985.06;;;-5.32;100.00
38253;BME280;24785;52.372;20.672;2022-11-20T20:55:30;99984.34;;;-5.41;100.00
38253;BME280;24785;52.372;20.672;2022-11-20T21:05:34;99981.66;;;-5.47;100.00
38253;BME280;24785;52.372;20.672;2022-11-20T21:15:38;99991.75;;;-5.59;100.00
38253;BME280;24785;52.372;20.672;2022-11-20T21:25:39;99972.56;;;-5.66;100.00
38253;BME280;24785;52.372;20.672;2022-11-20T21:35:40;99973.34;;;-5.80;100.00
38253;BME280;24785;52.372;20.672;2022-11-20T21:45:41;99967.41;;;-5.74;100.00
38253;BME280;24785;52.372;20.672;2022-11-20T21:55:42;99984.94;;;-5.83;100.00
38253;BME280;24785;52.372;20.672;2022-11-20T22:05:52;99978.94;;;-5.83;100.00
38253;BME280;24785;52.372;20.672;2022-11-20T22:16:00;99980.47;;;-6.04;100.00
38253;BME280;24785;52.372;20.672;2022-11-20T22:26:06;99988.06;;;-6.17;100.00
38253;BME280;24785;52.372;20.672;2022-11-20T22:36:11;99982.44;;;-6.28;100.00
38253;BME280;24785;52.372;20.672;2022-11-20T22:56:16;99985.16;;;-6.68;100.00
38253;BME280;24785;52.372;20.672;2022-11-20T23:06:18;99981.22;;;-6.63;100.00
38253;BME280;24785;52.372;20.672;2022-11-20T23:16:19;99968.34;;;-6.88;100.00
38253;BME280;24785;52.372;20.672;2022-11-20T23:26:23;99979.50;;;-7.02;100.00
38253;BME280;24785;52.372;20.672;2022-11-20T23:36:24;99976.97;;;-7.18;100.00
38253;BME280;24785;52.372;20.672;2022-11-20T23:46:25;99977.34;;;-7.30;100.00
38253;BME280;24785;52.372;20.672;2022-11-20T23:56:26;99989.44;;;-7.45;100.00
